Time;durP1;ratioP1;P1;durP2;ratioP2;P2;SDS_P1;SDS_P2;PMS_P1;PMS_P2;Temp;Humidity;BMP_temperature;BMP_pressure;BME280_temperature;BME280_humidity;BME280_pressure;Samples;Min_cycle;Max_cycle;Signal;HPM_P1;HPM_P2
2024/04/14 00:02:34;;;;;;;16.75;4.85;;;;;;;13.58;100.00;101981.34;11068679;26;20001;-72
2024/04/14 00:07:34;;;;;;;22.02;6.00;;;;;;;13.50;100.00;101974.13;11067050;26;20490;-71
2024/04/14 00:12:35;;;;;;;10.80;4.43;;;;;;;13.47;100.00;101994.41;11067848;26;19997;-72
2024/04/14 00:17:36;;;;;;;14.90;3.78;;;;;;;13.47;100.00;101985.41;11066423;26;20413;-72
2024/04/14 00:22:37;;;;;;;7.60;3.60;;;;;;;13.45;100.00;101992.91;11065778;26;19996;-71
2024/04/14 00:27:37;;;;;;;8.15;3.25;;;;;;;13.38;100.00;102003.69;11065241;26;20340;-72
2024/04/14 00:32:38;;;;;;;19.42;3.70;;;;;;;13.13;100.00;102005.81;11067160;26;20362;-72
2024/04/14 00:37:38;;;;;;;3.80;2.88;;;;;;;12.93;100.00;102008.25;11065438;26;19997;-71
2024/04/14 00:42:39;;;;;;;11.90;3.33;;;;;;;12.82;100.00;102003.25;11065904;26;20490;-72
2024/04/14 00:47:39;;;;;;;7.05;2.42;;;;;;;12.74;100.00;102012.34;11064573;26;19997;-71
2024/04/14 00:52:40;;;;;;;14.05;3.70;;;;;;;12.57;100.00;102019.81;11066714;26;20345;-72
2024/04/14 00:57:40;;;;;;;5.90;2.17;;;;;;;12.38;100.00;102024.88;11067013;26;20003;-71
2024/04/14 01:02:41;;;;;;;6.38;2.50;;;;;;;12.20;100.00;102020.63;11065966;26;20077;-72
2024/04/14 01:07:41;;;;;;;4.20;1.85;;;;;;;12.09;100.00;102034.59;11066565;26;20039;-72
2024/04/14 01:12:42;;;;;;;4.78;1.70;;;;;;;11.95;100.00;102047.09;11067841;26;20092;-72
2024/04/14 01:17:43;;;;;;;3.58;2.38;;;;;;;11.87;100.00;102041.72;11072217;26;20017;-72
2024/04/14 01:22:43;;;;;;;14.85;2.63;;;;;;;11.75;100.00;102043.09;11073141;26;20001;-71
2024/04/14 01:27:44;;;;;;;4.70;2.83;;;;;;;11.66;100.00;102055.00;11066394;26;20344;-71
2024/04/14 01:32:45;;;;;;;7.85;2.88;;;;;;;11.61;100.00;102053.69;11066010;26;19997;-72
2024/04/14 01:37:45;;;;;;;5.88;2.90;;;;;;;11.53;100.00;102050.16;11036705;26;20025;-72
2024/04/14 01:42:45;;;;;;;6.25;1.95;;;;;;;11.46;100.00;102049.16;11065924;26;19997;-71
2024/04/14 01:47:46;;;;;;;15.20;2.90;;;;;;;11.39;100.00;102052.56;11066192;26;20001;-71
2024/04/14 01:52:46;;;;;;;15.15;1.85;;;;;;;11.31;100.00;102051.75;11093401;26;20008;-71
2024/04/14 01:57:47;;;;;;;3.00;2.70;;;;;;;11.18;100.00;102055.00;11065236;26;20058;-71
2024/04/14 02:02:48;;;;;;;10.88;3.17;;;;;;;11.11;100.00;102064.84;11064089;26;20326;-71
2024/04/14 02:07:49;;;;;;;10.88;3.40;;;;;;;11.10;100.00;102065.84;11064139;26;20016;-71
2024/04/14 02:12:49;;;;;;;17.98;2.15;;;;;;;11.08;100.00;102063.31;11068365;26;20468;-71
2024/04/14 02:17:50;;;;;;;13.57;3.15;;;;;;;11.15;100.00;102077.03;11066383;26;20000;-71
2024/04/14 02:22:51;;;;;;;7.50;2.72;;;;;;;11.23;100.00;102081.59;11062925;26;20047;-71
2024/04/14 02:27:53;;;;;;;5.70;2.50;;;;;;;11.21;100.00;102083.63;11064307;26;20015;-72
2024/04/14 02:32:53;;;;;;;5.82;2.38;;;;;;;11.22;100.00;102090.75;11064605;26;19997;-72
2024/04/14 02:37:54;;;;;;;2.75;1.20;;;;;;;11.24;100.00;102094.16;11033906;26;19996;-72
2024/04/14 02:42:54;;;;;;;6.57;2.38;;;;;;;11.29;100.00;102092.56;11064767;26;20004;-72
2024/04/14 02:47:55;;;;;;;10.80;2.58;;;;;;;11.26;100.00;102098.34;11064004;26;20008;-71
2024/04/14 02:52:55;;;;;;;6.55;2.28;;;;;;;11.39;100.00;102098.69;11061919;26;20007;-71
2024/04/14 02:58:01;;;;;;;8.88;3.05;;;;;;;11.39;100.00;102097.81;11064317;26;20007;-71
2024/04/14 03:03:01;;;;;;;14.40;2.67;;;;;;;11.28;100.00;102109.03;11066526;26;20025;-72
2024/04/14 03:08:04;;;;;;;13.55;2.50;;;;;;;11.26;100.00;102108.34;11063855;26;20011;-72
2024/04/14 03:13:04;;;;;;;2.83;1.70;;;;;;;11.29;100.00;102098.00;11033932;26;20009;-72
2024/04/14 03:18:05;;;;;;;9.00;2.58;;;;;;;11.28;100.00;102100.91;11061695;26;20016;-72
2024/04/14 03:23:05;;;;;;;7.85;2.70;;;;;;;11.34;100.00;102120.03;11064341;26;20001;-72
2024/04/14 03:28:06;;;;;;;5.88;2.97;;;;;;;11.52;100.00;102121.69;11033316;26;19993;-72
2024/04/14 03:33:06;;;;;;;6.63;2.67;;;;;;;11.57;100.00;102113.88;11072655;26;20001;-72
2024/04/14 03:38:07;;;;;;;5.13;1.80;;;;;;;11.66;100.00;102118.25;11069004;26;20543;-71
2024/04/14 03:43:07;;;;;;;9.93;3.67;;;;;;;11.75;100.00;102114.50;11071403;26;20009;-72
2024/04/14 03:48:08;;;;;;;9.65;2.40;;;;;;;11.78;100.00;102114.16;11073799;26;20120;-71
2024/04/14 03:53:09;;;;;;;6.85;2.78;;;;;;;11.81;100.00;102135.50;11071624;26;20067;-71
2024/04/14 03:58:10;;;;;;;4.20;2.42;;;;;;;11.86;100.00;102132.28;11068764;26;20001;-71
2024/04/14 04:03:10;;;;;;;6.22;2.95;;;;;;;11.88;100.00;102142.97;11066760;26;19997;-72
2024/04/14 04:08:11;;;;;;;7.13;2.10;;;;;;;11.86;100.00;102126.84;11066755;26;19997;-71
2024/04/14 04:13:11;;;;;;;12.07;3.00;;;;;;;11.84;100.00;102132.47;11071120;26;20075;-71
2024/04/14 04:18:12;;;;;;;6.05;2.25;;;;;;;11.79;100.00;102132.13;11066749;26;20005;-72
2024/04/14 04:23:12;;;;;;;6.70;2.72;;;;;;;11.67;100.00;102133.50;11067779;26;20001;-71
2024/04/14 04:28:13;;;;;;;8.38;2.83;;;;;;;11.62;100.00;102141.34;11066062;26;20436;-71
2024/04/14 04:33:13;;;;;;;5.63;3.83;;;;;;;11.60;100.00;102148.81;11095336;26;20401;-71
2024/04/14 04:38:13;;;;;;;2.20;2.00;;;;;;;11.57;100.00;102141.84;11065411;26;20445;-71
2024/04/14 04:43:14;;;;;;;6.47;2.17;;;;;;;11.49;100.00;102135.63;11064922;26;20007;-71
2024/04/14 04:48:14;;;;;;;8.27;3.00;;;;;;;11.51;100.00;102157.97;11067600;26;20001;-71
2024/04/14 04:53:15;;;;;;;3.95;2.30;;;;;;;11.47;100.00;102153.91;11068774;26;19997;-72
2024/04/14 04:58:15;;;;;;;11.68;3.10;;;;;;;11.47;100.00;102151.22;11036595;26;20032;-71
2024/04/14 05:03:16;;;;;;;14.35;4.10;;;;;;;11.44;100.00;102159.69;11065518;26;20001;-71
2024/04/14 05:08:16;;;;;;;8.82;3.28;;;;;;;11.40;100.00;102161.91;11067140;26;20001;-71
2024/04/14 05:13:16;;;;;;;11.02;2.58;;;;;;;11.36;100.00;102164.13;11036882;26;20000;-72
2024/04/14 05:18:17;;;;;;;14.18;3.45;;;;;;;11.39;100.00;102163.78;11066851;26;20007;-72
2024/04/14 05:23:17;;;;;;;16.90;3.10;;;;;;;11.40;100.00;102176.31;11064921;26;20007;-71
2024/04/14 05:28:18;;;;;;;8.93;3.00;;;;;;;11.46;100.00;102179.38;11065570;26;20073;-71
2024/04/14 05:33:18;;;;;;;4.72;1.73;;;;;;;11.53;100.00;102180.38;11065773;26;20048;-71
2024/04/14 05:38:19;;;;;;;12.40;4.22;;;;;;;11.56;100.00;102182.72;11063740;26;20025;-72
2024/04/14 05:43:19;;;;;;;6.15;2.78;;;;;;;11.59;100.00;102190.53;11063423;26;20001;-71
2024/04/14 05:48:20;;;;;;;11.27;3.15;;;;;;;11.71;100.00;102189.16;11035226;26;19997;-72
2024/04/14 05:53:20;;;;;;;7.20;2.42;;;;;;;11.89;100.00;102185.38;11062234;26;20026;-71
2024/04/14 05:58:21;;;;;;;11.30;2.95;;;;;;;11.95;100.00;102195.53;11034410;26;19997;-72
2024/04/14 06:03:21;;;;;;;11.43;2.72;;;;;;;11.92;100.00;102202.16;11065836;26;20025;-72
2024/04/14 06:08:21;;;;;;;2.35;1.75;;;;;;;11.97;100.00;102217.94;11064406;26;20428;-71
2024/04/14 06:13:23;;;;;;;6.68;1.95;;;;;;;12.08;100.00;102207.53;11067297;26;20004;-72
2024/04/14 06:18:24;;;;;;;4.40;2.38;;;;;;;12.20;100.00;102213.44;11068996;26;20077;-72
2024/04/14 06:23:24;;;;;;;11.63;2.45;;;;;;;12.23;100.00;102226.66;11069415;26;20069;-72
2024/04/14 06:28:25;;;;;;;13.00;2.75;;;;;;;12.39;100.00;102225.75;11067258;26;20465;-71
2024/04/14 06:33:25;;;;;;;8.48;2.47;;;;;;;12.49;100.00;102225.53;11064792;26;20329;-72
2024/04/14 06:38:26;;;;;;;7.97;2.55;;;;;;;12.51;99.63;102240.63;11067758;26;20429;-72
2024/04/14 06:43:26;;;;;;;15.13;2.50;;;;;;;12.64;99.52;102234.63;11064759;26;20412;-71
2024/04/14 06:48:26;;;;;;;11.98;1.90;;;;;;;12.79;97.81;102246.44;11063775;26;20074;-72
2024/04/14 06:53:27;;;;;;;5.63;2.30;;;;;;;12.89;96.28;102248.03;11065562;26;20336;-71
2024/04/14 06:58:28;;;;;;;7.63;1.38;;;;;;;13.22;96.26;102245.97;11032735;26;20085;-72
2024/04/14 07:03:28;;;;;;;3.65;2.08;;;;;;;13.64;95.00;102247.31;11063152;26;20087;-72
2024/04/14 07:08:29;;;;;;;4.78;1.30;;;;;;;13.85;91.19;102241.16;11063280;26;20507;-72
2024/04/14 07:13:29;;;;;;;2.50;1.58;;;;;;;14.10;88.43;102242.59;11062856;26;19997;-72
2024/04/14 07:18:29;;;;;;;5.03;2.28;;;;;;;14.35;85.57;102245.84;11063323;26;20013;-72
2024/04/14 07:23:31;;;;;;;1.70;1.30;;;;;;;14.65;79.66;102249.41;11061922;26;20004;-72
2024/04/14 07:28:32;;;;;;;18.05;3.00;;;;;;;14.89;76.79;102258.25;11062630;26;20120;-72
2024/04/14 07:33:32;;;;;;;4.55;1.73;;;;;;;15.05;70.67;102268.94;11063452;26;19997;-72
2024/04/14 07:38:32;;;;;;;2.60;1.25;;;;;;;15.30;70.04;102266.66;11062156;26;20041;-72
2024/04/14 07:43:33;;;;;;;13.15;2.22;;;;;;;15.72;71.19;102278.59;11062279;26;20025;-72
2024/04/14 07:48:33;;;;;;;7.68;2.22;;;;;;;15.71;67.97;102276.09;11062022;26;20378;-72
2024/04/14 07:53:34;;;;;;;3.85;2.13;;;;;;;15.44;66.69;102284.00;11062046;26;20012;-72
2024/04/14 07:58:34;;;;;;;3.78;1.63;;;;;;;15.56;68.96;102276.97;11061240;26;20000;-72
2024/04/14 08:03:35;;;;;;;5.65;2.22;;;;;;;15.63;68.23;102287.09;11059395;26;20012;-72
2024/04/14 08:08:35;;;;;;;5.18;1.67;;;;;;;16.18;65.05;102282.72;11061476;26;20052;-72
2024/04/14 08:13:35;;;;;;;2.13;1.58;;;;;;;16.41;63.57;102282.44;11060719;26;20012;-73
2024/04/14 08:18:36;;;;;;;2.47;1.90;;;;;;;17.00;63.13;102281.81;11066760;26;19997;-72
2024/04/14 08:23:36;;;;;;;3.53;1.73;;;;;;;17.09;61.89;102283.31;11070247;26;20437;-73
2024/04/14 08:28:37;;;;;;;5.15;1.95;;;;;;;17.28;62.70;102281.69;11066375;26;19997;-73
2024/04/14 08:33:37;;;;;;;4.32;2.75;;;;;;;17.60;61.11;102279.19;11068320;26;20001;-73
2024/04/14 08:38:39;;;;;;;4.68;1.83;;;;;;;17.89;61.45;102266.97;11065754;26;20001;-73
2024/04/14 08:43:39;;;;;;;6.35;1.88;;;;;;;18.20;58.24;102279.16;11068781;26;20034;-73
2024/04/14 08:48:41;;;;;;;8.88;1.50;;;;;;;18.82;58.41;102283.16;11065979;26;20048;-73
2024/04/14 08:53:42;;;;;;;2.50;1.52;;;;;;;19.94;57.85;102275.16;11066638;26;20016;-73
2024/04/14 08:58:43;;;;;;;8.93;2.03;;;;;;;20.24;54.97;102283.53;11070470;26;20008;-73
2024/04/14 09:03:43;;;;;;;1.27;1.27;;;;;;;19.46;51.56;102286.75;11071380;26;20001;-72
2024/04/14 09:08:44;;;;;;;2.67;2.22;;;;;;;18.72;51.16;102285.50;10969995;26;20008;-73
2024/04/14 09:13:45;;;;;;;2.60;1.52;;;;;;;18.95;51.98;102304.19;11064455;26;20070;-72
2024/04/14 09:18:45;;;;;;;1.65;1.42;;;;;;;20.00;52.53;102298.16;11067177;26;20034;-72
2024/04/14 09:23:46;;;;;;;2.05;1.80;;;;;;;20.90;51.56;102288.28;11064691;26;20001;-68
2024/04/14 09:28:46;;;;;;;6.90;1.88;;;;;;;21.05;49.62;102289.75;11005993;26;20001;-69
2024/04/14 09:33:46;;;;;;;3.30;2.10;;;;;;;20.92;48.42;102298.19;11067578;26;20009;-71
2024/04/14 09:38:47;;;;;;;1.40;1.30;;;;;;;21.23;47.84;102303.47;11035462;26;19993;-71
2024/04/14 09:43:51;;;;;;;4.70;2.22;;;;;;;21.01;44.62;102311.41;11064263;26;20001;-68
2024/04/14 09:48:52;;;;;;;2.75;2.28;;;;;;;20.38;45.14;102314.50;11063532;26;20352;-69
2024/04/14 09:53:52;;;;;;;4.18;2.13;;;;;;;20.69;46.69;102309.94;11034545;26;20029;-69
2024/04/14 09:58:55;;;;;;;3.35;2.40;;;;;;;21.21;46.92;102310.28;11063290;26;20062;-70
2024/04/14 10:03:57;;;;;;;6.60;2.60;;;;;;;21.92;47.04;102320.41;11036906;26;20005;-70
2024/04/14 10:08:57;;;;;;;12.45;1.95;;;;;;;21.04;45.97;102312.88;11067301;26;19997;-70
2024/04/14 10:13:58;;;;;;;3.22;2.05;;;;;;;20.53;48.21;102305.91;11064910;26;20408;-70
2024/04/14 10:19:04;;;;;;;3.95;1.58;;;;;;;20.67;47.56;102308.25;11034400;26;20007;-70
2024/04/14 10:24:10;;;;;;;;;;;;;;;20.60;42.63;102317.66;11062989;26;20437;-69
2024/04/14 10:29:10;;;;;;;4.47;2.42;;;;;;;20.35;42.07;102309.44;11063742;26;19933;-69
2024/04/14 10:34:11;;;;;;;6.18;2.78;;;;;;;20.65;43.92;102307.66;11061975;26;20352;-69
2024/04/14 10:39:14;;;;;;;2.70;2.42;;;;;;;20.51;43.85;102314.38;11003763;26;20009;-69
2024/04/14 10:44:18;;;;;;;6.88;3.17;;;;;;;20.37;44.09;102299.91;11032991;26;20003;-69
2024/04/14 10:49:18;;;;;;;2.42;1.95;;;;;;;20.90;46.92;102288.28;11032534;26;19993;-68
2024/04/14 10:54:19;;;;;;;3.70;1.67;;;;;;;21.49;43.75;102279.38;11061789;26;19997;-68
2024/04/14 10:59:20;;;;;;;15.90;2.75;;;;;;;20.93;46.60;102283.34;11061485;26;20001;-69
2024/04/14 11:04:20;;;;;;;3.75;2.38;;;;;;;21.87;43.97;102272.56;11061898;26;20364;-69
2024/04/14 11:09:22;;;;;;;8.90;2.95;;;;;;;22.11;42.21;102259.59;11061226;26;19997;-71
2024/04/14 11:14:22;;;;;;;5.55;2.45;;;;;;;22.46;43.68;102263.19;10989873;26;20004;-74
2024/04/14 11:19:23;;;;;;;4.55;1.77;;;;;;;23.00;43.03;102253.75;11063508;26;20004;-71
2024/04/14 11:24:23;;;;;;;13.27;2.95;;;;;;;22.49;38.93;102259.94;11062810;26;20076;-71
2024/04/14 11:29:24;;;;;;;5.32;2.45;;;;;;;22.37;42.02;102255.53;11032188;26;20020;-72
2024/04/14 11:34:24;;;;;;;4.40;1.95;;;;;;;22.68;40.56;102240.41;11062303;26;19997;-72
2024/04/14 11:39:25;;;;;;;6.68;2.90;;;;;;;21.55;41.58;102243.41;11063977;26;19993;-73
2024/04/14 11:44:25;;;;;;;5.15;3.45;;;;;;;21.37;41.39;102249.03;11060467;26;20539;-73
2024/04/14 11:49:26;;;;;;;4.55;3.83;;;;;;;20.81;43.24;102250.28;11060713;26;20222;-71
2024/04/14 11:54:26;;;;;;;3.42;2.85;;;;;;;20.57;43.88;102241.91;10991319;26;20013;-72
2024/04/14 11:59:26;;;;;;;4.60;3.13;;;;;;;20.19;43.91;102248.44;11037466;26;20472;-72
2024/04/14 12:04:27;;;;;;;5.88;3.03;;;;;;;20.15;46.02;102233.50;11068274;26;20069;-72
2024/04/14 12:09:27;;;;;;;10.15;3.13;;;;;;;19.97;45.30;102233.47;11067710;26;20124;-73
2024/04/14 12:14:28;;;;;;;6.07;3.15;;;;;;;20.07;45.22;102246.69;11066804;26;20066;-72
2024/04/14 12:19:29;;;;;;;8.45;4.13;;;;;;;20.17;46.00;102236.88;11067623;26;20001;-69
2024/04/14 12:24:29;;;;;;;4.00;2.33;;;;;;;20.49;45.47;102231.19;11066698;26;20007;-72
2024/04/14 12:29:31;;;;;;;6.72;4.03;;;;;;;20.31;44.79;102220.19;11067714;26;20029;-72
2024/04/14 12:34:32;;;;;;;8.70;3.38;;;;;;;20.11;46.82;102212.19;11066513;26;20143;-72
2024/04/14 12:39:34;;;;;;;22.95;3.28;;;;;;;20.45;46.81;102216.19;11037051;26;20004;-74
2024/04/14 12:44:36;;;;;;;5.03;2.60;;;;;;;20.69;45.19;102203.41;11065918;26;20008;-74
2024/04/14 12:49:36;;;;;;;4.53;2.90;;;;;;;21.01;45.75;102197.66;11065936;26;19995;-73
2024/04/14 12:54:36;;;;;;;13.98;3.33;;;;;;;21.29;45.97;102199.75;11066448;26;19993;-74
2024/04/14 12:59:37;;;;;;;4.55;2.33;;;;;;;21.17;45.85;102199.72;11066821;26;19992;-74
2024/04/14 13:04:37;;;;;;;8.23;4.72;;;;;;;21.42;46.84;102191.28;11067175;26;20379;-74
2024/04/14 13:09:38;;;;;;;16.80;3.40;;;;;;;20.98;43.63;102185.19;11070514;26;19999;-74
2024/04/14 13:14:38;;;;;;;3.33;2.83;;;;;;;21.13;43.85;102157.22;11073247;26;20358;-74
2024/04/14 13:19:39;;;;;;;3.72;2.42;;;;;;;21.08;47.63;102162.59;11036217;26;20003;-73
2024/04/14 13:24:39;;;;;;;5.93;3.30;;;;;;;21.12;43.06;102148.13;11064466;26;20007;-74
2024/04/14 13:29:39;;;;;;;4.30;2.40;;;;;;;21.14;44.74;102153.38;11063680;26;20529;-74
2024/04/14 13:34:40;;;;;;;2.72;2.15;;;;;;;21.18;43.06;102137.19;11064769;26;20010;-74
2024/04/14 13:39:40;;;;;;;3.83;2.45;;;;;;;20.97;44.94;102146.88;11067804;26;19997;-72
2024/04/14 13:44:42;;;;;;;2.47;2.15;;;;;;;21.04;44.94;102136.59;11065225;26;20009;-72
2024/04/14 13:49:42;;;;;;;9.77;3.47;;;;;;;20.64;46.31;102139.97;11064253;26;19997;-74
2024/04/14 13:54:42;;;;;;;4.63;2.55;;;;;;;20.08;46.56;102139.22;11063387;26;19996;-73
2024/04/14 13:59:43;;;;;;;5.60;2.35;;;;;;;19.43;45.91;102138.84;11063527;26;19997;-73
2024/04/14 14:04:43;;;;;;;3.40;1.92;;;;;;;19.42;48.10;102129.78;11064361;26;20008;-73
2024/04/14 14:09:44;;;;;;;7.32;3.33;;;;;;;19.19;46.75;102124.94;11063834;26;20004;-73
2024/04/14 14:14:44;;;;;;;6.63;2.28;;;;;;;18.97;47.73;102121.75;11064739;26;19993;-74
2024/04/14 14:19:45;;;;;;;2.33;1.60;;;;;;;19.04;47.33;102125.25;11064713;26;20437;-73
2024/04/14 14:24:46;;;;;;;7.20;2.03;;;;;;;18.82;47.62;102115.75;11063754;26;20001;-72
2024/04/14 14:29:49;;;;;;;4.30;2.17;;;;;;;18.68;46.10;102106.75;10964775;26;20063;-75
2024/04/14 14:40:09;;;;;;;3.03;2.42;;;;;;;18.16;48.34;102094.22;11067497;26;20001;-76
2024/04/14 14:45:10;;;;;;;7.78;2.65;;;;;;;18.16;48.06;102100.53;11063252;26;20336;-74
2024/04/14 14:50:10;;;;;;;1.85;1.75;;;;;;;17.96;48.20;102078.69;11062290;26;20012;-73
2024/04/14 14:55:11;;;;;;;8.10;1.88;;;;;;;17.87;47.78;102094.53;11061985;26;20441;-73
2024/04/14 15:00:12;;;;;;;2.30;2.13;;;;;;;17.38;47.29;102084.94;11063277;26;20437;-74
2024/04/14 15:05:14;;;;;;;2.67;2.08;;;;;;;17.20;49.12;102082.91;11033210;26;20001;-73
2024/04/14 15:10:14;;;;;;;13.23;2.33;;;;;;;17.09;48.95;102082.69;11061219;26;20035;-74
2024/04/14 15:15:15;;;;;;;11.90;2.78;;;;;;;16.63;48.78;102075.31;11060893;26;20008;-73
2024/04/14 15:20:15;;;;;;;3.90;2.17;;;;;;;16.53;49.19;102067.50;11060931;26;20336;-73
2024/04/14 15:25:15;;;;;;;8.68;2.58;;;;;;;16.35;49.34;102078.19;11062061;26;20012;-73
2024/04/14 15:30:16;;;;;;;8.05;3.17;;;;;;;16.20;49.46;102081.09;11062062;26;20008;-73
2024/04/14 15:35:16;;;;;;;15.40;2.63;;;;;;;15.99;49.69;102069.28;11065662;26;20000;-73
2024/04/14 15:40:17;;;;;;;2.05;1.95;;;;;;;15.86;49.90;102066.50;11032350;26;20013;-73
2024/04/14 15:45:17;;;;;;;4.93;1.05;;;;;;;15.78;50.14;102066.66;11060051;26;20025;-73
2024/04/14 15:50:18;;;;;;;4.88;2.47;;;;;;;15.65;50.35;102072.03;11061296;26;20007;-73
2024/04/14 15:55:18;;;;;;;4.47;2.85;;;;;;;15.68;50.21;102049.81;11061326;26;20107;-73
2024/04/14 16:00:19;;;;;;;4.38;1.73;;;;;;;15.58;50.82;102037.34;11062168;26;20001;-73
2024/04/14 16:05:19;;;;;;;3.63;1.95;;;;;;;15.40;51.08;102028.84;11061479;26;20020;-73
2024/04/14 16:10:19;;;;;;;4.20;1.95;;;;;;;15.24;51.35;102024.56;11061432;26;19997;-73
2024/04/14 16:15:20;;;;;;;3.53;1.88;;;;;;;15.16;51.51;102022.00;11029816;26;20012;-73
2024/04/14 16:20:20;;;;;;;8.23;2.30;;;;;;;15.03;51.62;102009.13;11060613;26;20003;-73
2024/04/14 16:25:21;;;;;;;8.30;3.17;;;;;;;14.93;51.88;102002.31;11058309;26;20048;-73
2024/04/14 16:30:22;;;;;;;5.55;1.33;;;;;;;14.82;52.02;101995.56;11060177;26;20009;-73
2024/04/14 16:35:23;;;;;;;2.95;2.03;;;;;;;14.64;52.33;101968.78;11059473;26;20016;-73
2024/04/14 16:40:23;;;;;;;16.17;3.70;;;;;;;14.63;52.57;101965.22;11067853;26;20008;-73
2024/04/14 16:45:24;;;;;;;9.45;3.38;;;;;;;14.50;52.56;101961.50;11067574;26;20387;-73
2024/04/14 16:50:24;;;;;;;9.52;2.30;;;;;;;14.47;52.90;101945.56;11067256;26;20009;-73
2024/04/14 16:55:24;;;;;;;4.75;1.23;;;;;;;14.34;53.37;101951.75;11068084;26;20029;-73
2024/04/14 17:00:26;;;;;;;7.53;2.28;;;;;;;14.23;53.31;101930.47;11036782;26;20005;-73
2024/04/14 17:05:27;;;;;;;13.93;2.65;;;;;;;14.10;53.54;101920.28;11009689;26;19997;-73
2024/04/14 17:10:29;;;;;;;5.22;2.60;;;;;;;13.86;53.77;101910.66;11065291;26;20037;-73
2024/04/14 17:15:29;;;;;;;11.27;3.17;;;;;;;13.78;54.01;101899.88;11036833;26;19993;-73
2024/04/14 17:20:31;;;;;;;3.63;2.03;;;;;;;13.84;53.70;101888.22;11066999;26;19997;-73
2024/04/14 17:25:32;;;;;;;9.98;1.63;;;;;;;13.73;53.81;101889.59;11065605;26;20044;-73
2024/04/14 17:30:35;;;;;;;11.43;3.78;;;;;;;13.63;54.07;101876.31;11066501;26;20390;-73
2024/04/14 17:35:35;;;;;;;10.52;3.20;;;;;;;13.52;54.04;101870.53;11064229;26;20033;-73
2024/04/14 17:40:36;;;;;;;2.90;2.08;;;;;;;13.34;54.45;101854.66;11035139;26;20004;-73
2024/04/14 17:45:36;;;;;;;6.55;2.38;;;;;;;13.24;54.94;101853.09;11063802;26;20001;-73
2024/04/14 17:50:36;;;;;;;17.40;2.05;;;;;;;13.17;54.86;101849.38;11064917;26;20352;-72
2024/04/14 17:55:37;;;;;;;4.90;2.05;;;;;;;13.09;54.80;101852.22;11070928;26;20001;-73
2024/04/14 18:00:37;;;;;;;5.80;3.03;;;;;;;12.97;55.26;101851.88;11064101;26;20011;-73
2024/04/14 18:05:38;;;;;;;12.48;4.53;;;;;;;12.88;55.28;101836.69;11065552;26;20000;-73
2024/04/14 18:10:38;;;;;;;6.40;2.30;;;;;;;12.74;55.56;101832.97;11065383;26;20012;-73
2024/04/14 18:15:39;;;;;;;9.32;2.70;;;;;;;12.60;55.95;101817.50;11063559;26;20001;-73
2024/04/14 18:20:39;;;;;;;4.88;1.80;;;;;;;12.51;56.25;101815.94;11035488;26;20000;-73
2024/04/14 18:25:39;;;;;;;4.55;2.28;;;;;;;12.45;56.07;101822.13;11034059;26;20000;-72
2024/04/14 18:30:40;;;;;;;13.85;3.75;;;;;;;12.37;56.29;101805.91;11063539;26;20001;-73
2024/04/14 18:35:41;;;;;;;2.65;2.45;;;;;;;12.26;56.12;101805.34;11064478;26;20042;-72
2024/04/14 18:40:41;;;;;;;5.63;2.13;;;;;;;12.26;56.28;101799.91;11063702;26;20025;-73
2024/04/14 18:45:57;;;;;;;4.70;2.75;;;;;;;12.28;56.80;101806.03;11061849;26;20374;-73
2024/04/14 18:50:58;;;;;;;5.03;3.03;;;;;;;12.28;56.74;101795.16;11035065;26;20334;-73
2024/04/14 18:55:59;;;;;;;6.22;2.22;;;;;;;12.23;56.82;101794.03;11064508;26;20005;-72
2024/04/14 19:01:01;;;;;;;4.38;1.92;;;;;;;12.14;57.07;101795.13;11061679;26;20047;-72
2024/04/14 19:06:02;;;;;;;6.45;1.85;;;;;;;11.99;57.63;101803.25;11063473;26;20012;-72
2024/04/14 19:11:03;;;;;;;3.80;2.03;;;;;;;12.01;58.07;101798.50;11033023;26;20012;-72
2024/04/14 19:16:07;;;;;;;4.05;1.75;;;;;;;12.08;57.92;101791.28;11064258;26;20012;-72
2024/04/14 19:21:08;;;;;;;5.20;2.53;;;;;;;12.10;57.86;101783.81;11065027;26;20388;-73
2024/04/14 19:26:09;;;;;;;9.13;2.42;;;;;;;12.05;58.07;101778.91;11032866;26;20001;-72
2024/04/14 19:31:11;;;;;;;15.80;3.53;;;;;;;12.00;58.06;101772.38;11063864;26;20007;-72
2024/04/14 19:36:12;;;;;;;5.70;2.55;;;;;;;11.95;58.72;101767.50;11062038;26;19997;-72
2024/04/14 19:41:15;;;;;;;7.18;2.47;;;;;;;11.90;58.89;101763.63;11062405;26;20000;-73
2024/04/14 19:46:15;;;;;;;10.68;2.20;;;;;;;11.90;58.92;101750.06;11061852;26;19997;-73
2024/04/14 19:51:15;;;;;;;2.83;2.63;;;;;;;11.88;59.65;101744.00;11061067;26;20410;-72
2024/04/14 19:56:16;;;;;;;6.72;2.40;;;;;;;11.85;59.61;101737.91;11062588;26;20004;-72
2024/04/14 20:01:17;;;;;;;2.00;1.90;;;;;;;11.78;59.44;101739.66;11062543;26;19993;-72
2024/04/14 20:06:17;;;;;;;11.15;2.53;;;;;;;11.74;59.81;101749.19;11062715;26;20432;-72
2024/04/14 20:11:18;;;;;;;7.28;1.98;;;;;;;11.75;60.69;101740.03;11065193;26;19997;-73
2024/04/14 20:16:18;;;;;;;6.63;2.20;;;;;;;11.77;61.64;101747.97;11039547;26;20005;-77
2024/04/14 20:21:19;;;;;;;9.60;3.15;;;;;;;11.80;61.23;101726.72;11069294;26;20340;-73
2024/04/14 20:26:19;;;;;;;7.90;3.03;;;;;;;11.74;61.17;101727.50;11067156;26;19997;-72
2024/04/14 20:31:20;;;;;;;1.90;1.73;;;;;;;11.70;61.02;101723.44;11068524;26;20008;-72
2024/04/14 20:36:21;;;;;;;3.72;1.90;;;;;;;11.64;60.80;101703.31;11041077;26;20004;-72
2024/04/14 20:41:21;;;;;;;9.55;1.90;;;;;;;11.55;60.69;101728.84;11072709;26;20012;-72
2024/04/14 20:46:22;;;;;;;4.25;2.75;;;;;;;11.51;60.92;101710.41;11069220;26;20012;-72
2024/04/14 20:51:22;;;;;;;8.38;2.75;;;;;;;11.46;60.45;101718.28;11067491;26;20009;-72
2024/04/14 20:56:23;;;;;;;1.85;1.58;;;;;;;11.38;61.36;101709.16;11037373;26;20001;-72
2024/04/14 21:01:23;;;;;;;6.65;1.90;;;;;;;11.31;61.97;101701.94;11068107;26;19997;-72
2024/04/14 21:06:24;;;;;;;4.43;2.35;;;;;;;11.21;61.97;101691.34;11067275;26;20502;-72
2024/04/14 21:11:24;;;;;;;2.83;1.77;;;;;;;11.19;61.97;101698.81;11065548;26;20009;-72
2024/04/14 21:16:24;;;;;;;3.65;2.42;;;;;;;11.14;63.44;101688.53;11067801;26;20016;-72
2024/04/14 21:21:25;;;;;;;5.72;2.13;;;;;;;11.08;66.37;101689.25;11065520;26;19997;-72
2024/04/14 21:26:26;;;;;;;18.45;2.88;;;;;;;11.03;68.63;101679.97;11064479;26;20452;-72
2024/04/14 21:31:27;;;;;;;4.90;2.17;;;;;;;10.92;75.20;101675.84;11065980;26;20074;-72
2024/04/14 21:36:28;;;;;;;9.32;1.95;;;;;;;10.90;73.70;101658.91;11066181;26;20062;-71
2024/04/14 21:41:28;;;;;;;5.32;2.75;;;;;;;10.86;71.70;101639.47;11035784;26;20025;-71
2024/04/14 21:46:29;;;;;;;5.05;2.53;;;;;;;10.73;74.40;101622.97;11064287;26;20394;-72
2024/04/14 21:51:29;;;;;;;5.35;2.13;;;;;;;10.67;72.40;101626.41;11065891;26;20420;-72
2024/04/14 21:56:35;;;;;;;2.13;1.48;;;;;;;10.60;71.77;101614.59;11068328;26;20005;-71
2024/04/14 22:01:36;;;;;;;6.82;2.53;;;;;;;10.46;72.20;101603.53;11068542;26;20008;-72
2024/04/14 22:06:36;;;;;;;9.63;1.95;;;;;;;10.38;70.43;101589.19;11067872;26;20101;-72
2024/04/14 22:11:37;;;;;;;16.70;2.33;;;;;;;10.24;71.09;101580.78;11066124;26;20015;-72
2024/04/14 22:16:38;;;;;;;2.65;1.70;;;;;;;10.25;74.20;101579.75;11035829;26;20008;-72
2024/04/14 22:21:38;;;;;;;7.15;1.92;;;;;;;10.38;72.29;101570.25;11065075;26;20005;-71
2024/04/14 22:26:39;;;;;;;4.05;1.80;;;;;;;10.34;74.30;101556.22;11063221;26;20011;-71
2024/04/14 22:31:39;;;;;;;6.40;1.52;;;;;;;10.22;74.95;101535.97;11034912;26;19997;-72
2024/04/14 22:36:39;;;;;;;6.35;1.50;;;;;;;10.05;72.00;101526.25;11062361;26;20359;-72
2024/04/14 22:41:40;;;;;;;6.45;2.20;;;;;;;9.81;75.12;101519.16;11064256;26;20012;-71
2024/04/14 22:46:40;;;;;;;1.70;1.20;;;;;;;9.62;74.40;101515.84;11062362;26;20001;-71
2024/04/14 22:51:41;;;;;;;10.13;2.40;;;;;;;9.44;73.20;101505.25;11037889;26;20030;-72
2024/04/14 22:56:41;;;;;;;3.78;2.20;;;;;;;9.34;75.32;101495.69;11062514;26;20317;-71
2024/04/14 23:01:42;;;;;;;1.60;1.50;;;;;;;9.25;79.11;101487.63;11064083;26;20063;-71